Time;durP1;ratioP1;P1;durP2;ratioP2;P2;SDS_P1;SDS_P2;PMS_P1;PMS_P2;Temp;Humidity;BMP_temperature;BMP_pressure;BME280_temperature;BME280_humidity;BME280_pressure;Samples;Min_cycle;Max_cycle;Signal;HPM_P1;HPM_P2
2022/12/23 00:00:16;;;;;;;65.28;34.53;;;6.70;99.90;;;;;;4967886;28;20126;-63
2022/12/23 00:02:42;;;;;;;66.13;34.83;;;6.70;99.90;;;;;;4968585;28;20129;-62
2022/12/23 00:05:08;;;;;;;58.75;32.75;;;6.50;99.90;;;;;;4967775;28;20046;-62
2022/12/23 00:07:34;;;;;;;60.72;34.53;;;6.60;99.90;;;;;;4965752;28;20049;-62
2022/12/23 00:09:59;;;;;;;56.78;33.38;;;6.60;99.90;;;;;;4966480;28;20055;-61
2022/12/23 00:15:10;;;;;;;56.15;30.67;;;6.50;99.90;;;;;;4968217;28;20089;-62
2022/12/23 00:17:45;;;;;;;56.20;31.42;;;6.70;99.90;;;;;;4966128;28;20046;-62
2022/12/23 00:20:13;;;;;;;58.88;30.95;;;6.70;99.90;;;;;;4968338;28;20061;-62
2022/12/23 00:25:39;;;;;;;52.55;30.25;;;6.60;99.90;;;;;;4968039;28;20054;-61
2022/12/23 00:28:25;;;;;;;57.28;31.77;;;6.50;99.90;;;;;;4967908;28;20061;-62
2022/12/23 00:31:02;;;;;;;57.97;32.13;;;6.40;99.90;;;;;;4967717;28;20058;-62
2022/12/23 00:33:33;;;;;;;60.15;32.83;;;6.30;99.90;;;;;;4967376;28;20386;-62
2022/12/23 00:35:59;;;;;;;54.80;30.05;;;6.50;99.90;;;;;;4967221;28;20050;-62
2022/12/23 00:44:03;;;;;;;64.82;27.30;;;6.60;99.90;;;;;;4967381;28;20096;-62
2022/12/23 00:46:30;;;;;;;59.03;27.92;;;6.60;99.90;;;;;;4966113;28;20047;-62
2022/12/23 00:51:40;;;;;;;66.80;26.63;;;6.60;99.90;;;;;;4966731;28;20089;-61
2022/12/23 00:54:06;;;;;;;48.88;27.98;;;6.10;99.90;;;;;;4967739;28;20654;-62
2022/12/23 00:56:31;;;;;;;99.10;30.77;;;6.20;99.90;;;;;;4967144;28;20047;-61
2022/12/23 00:58:57;;;;;;;95.80;30.25;;;6.30;99.90;;;;;;4967433;28;20054;-61
2022/12/23 01:06:57;;;;;;;53.00;30.15;;;6.10;99.90;;;;;;4966604;28;20409;-62
2022/12/23 01:09:23;;;;;;;53.83;30.27;;;6.50;99.90;;;;;;4967426;28;20051;-61
2022/12/23 01:11:48;;;;;;;58.15;31.70;;;6.40;99.90;;;;;;4967884;28;20090;-62
2022/12/23 01:14:16;;;;;;;146.52;33.50;;;6.40;99.90;;;;;;4967650;28;20134;-61
2022/12/23 01:16:42;;;;;;;91.78;33.33;;;6.20;99.90;;;;;;4967925;28;20054;-61
2022/12/23 01:19:08;;;;;;;67.97;34.60;;;6.30;99.90;;;;;;4967063;28;20141;-61
2022/12/23 01:21:34;;;;;;;66.75;34.53;;;6.30;99.90;;;;;;4976347;28;20045;-62
2022/12/23 01:24:00;;;;;;;73.68;36.58;;;6.10;99.90;;;;;;4974663;28;20043;-61
2022/12/23 01:26:25;;;;;;;72.63;35.65;;;6.50;99.90;;;;;;4970726;28;20728;-63
2022/12/23 01:28:56;;;;;;;75.95;37.65;;;6.50;99.90;;;;;;4970493;28;20043;-62
2022/12/23 01:31:23;;;;;;;86.80;38.92;;;6.50;99.90;;;;;;4970948;28;20093;-61
2022/12/23 01:33:50;;;;;;;76.85;35.55;;;6.40;99.90;;;;;;4971182;28;20101;-62
2022/12/23 01:36:16;;;;;;;92.22;37.28;;;6.10;99.90;;;;;;4970381;28;20434;-61
2022/12/23 01:38:42;;;;;;;86.13;37.08;;;6.10;99.90;;;;;;4970752;28;20061;-62
2022/12/23 01:41:08;;;;;;;69.25;35.58;;;6.40;99.90;;;;;;4970514;28;20114;-61
2022/12/23 01:43:50;;;;;;;72.07;35.65;;;6.10;99.90;;;;;;4970238;28;20050;-62
2022/12/23 01:46:16;;;;;;;75.60;37.05;;;6.30;99.90;;;;;;4970680;28;20043;-62
2022/12/23 01:48:45;;;;;;;79.07;38.50;;;6.20;99.90;;;;;;4969930;28;20042;-62
2022/12/23 01:51:19;;;;;;;78.82;37.80;;;6.50;99.90;;;;;;4969349;28;20065;-61
2022/12/23 01:53:48;;;;;;;76.03;36.95;;;6.50;99.90;;;;;;4970593;28;20093;-62
2022/12/23 01:56:19;;;;;;;73.93;36.42;;;6.50;99.90;;;;;;4969994;28;20161;-62
2022/12/23 01:58:59;;;;;;;74.05;37.22;;;6.30;99.90;;;;;;4970143;28;20039;-62
2022/12/23 02:04:14;;;;;;;83.05;39.45;;;6.40;99.90;;;;;;4969922;28;20054;-62
2022/12/23 02:09:33;;;;;;;82.30;37.38;;;6.20;99.90;;;;;;4969522;28;20057;-62
2022/12/23 02:12:14;;;;;;;85.50;37.75;;;6.40;99.90;;;;;;4970175;28;20125;-61
2022/12/23 02:17:48;;;;;;;98.90;41.42;;;6.50;99.90;;;;;;4969954;28;20054;-61
2022/12/23 02:20:32;;;;;;;91.97;40.20;;;6.50;99.90;;;;;;4970645;28;20058;-62
2022/12/23 02:23:27;;;;;;;99.20;42.58;;;6.10;99.90;;;;;;4977730;28;20046;-61
2022/12/23 02:25:59;;;;;;;105.47;43.42;;;6.50;99.90;;;;;;4968442;28;20100;-61
2022/12/23 02:28:40;;;;;;;121.45;44.35;;;6.20;99.90;;;;;;4968420;28;20060;-62
2022/12/23 02:31:24;;;;;;;98.90;43.13;;;6.40;99.90;;;;;;4967790;28;20061;-62
2022/12/23 02:34:34;;;;;;;104.43;43.70;;;6.00;99.90;;;;;;4968202;28;20050;-61
2022/12/23 02:37:20;;;;;;;93.70;43.33;;;6.40;99.90;;;;;;5004901;28;20429;-61
2022/12/23 02:39:48;;;;;;;91.97;40.65;;;6.50;99.90;;;;;;5005193;28;20061;-61
2022/12/23 02:42:16;;;;;;;92.65;41.00;;;6.10;99.90;;;;;;4981938;28;20736;-62
2022/12/23 02:45:08;;;;;;;115.43;43.72;;;6.10;99.90;;;;;;4967994;28;20047;-61
2022/12/23 02:47:39;;;;;;;108.00;42.53;;;6.10;99.90;;;;;;4973813;28;20126;-62
2022/12/23 02:50:28;;;;;;;116.30;43.67;;;6.10;99.90;;;;;;4969119;28;20059;-61
2022/12/23 02:52:57;;;;;;;110.80;43.58;;;6.40;99.90;;;;;;4968849;28;20497;-62
2022/12/23 02:55:28;;;;;;;107.13;43.17;;;6.10;99.90;;;;;;4968234;28;20062;-61
2022/12/23 02:57:56;;;;;;;99.25;40.70;;;6.30;99.90;;;;;;4969363;28;20047;-61
2022/12/23 03:00:22;;;;;;;119.18;43.47;;;6.50;99.90;;;;;;4969493;28;20050;-62
2022/12/23 03:02:48;;;;;;;124.00;43.85;;;6.50;99.90;;;;;;4967813;28;20066;-61
2022/12/23 03:05:35;;;;;;;126.47;43.15;;;6.20;99.90;;;;;;4968750;28;20104;-62
2022/12/23 03:08:04;;;;;;;122.18;43.35;;;6.40;99.90;;;;;;4969208;28;20097;-62
2022/12/23 03:10:35;;;;;;;121.63;41.35;;;6.50;99.90;;;;;;4967979;28;20054;-61
2022/12/23 03:13:31;;;;;;;120.80;42.97;;;6.50;99.90;;;;;;4968547;28;20051;-62
2022/12/23 03:16:14;;;;;;;124.75;43.95;;;6.60;99.90;;;;;;4968555;28;20043;-63
2022/12/23 03:19:13;;;;;;;119.53;42.55;;;6.60;99.90;;;;;;4967019;28;20052;-62
2022/12/23 03:21:51;;;;;;;122.00;42.97;;;6.30;99.90;;;;;;4975433;28;20379;-62
2022/12/23 03:24:44;;;;;;;124.97;44.53;;;6.30;99.90;;;;;;4969071;28;20200;-62
2022/12/23 03:27:26;;;;;;;131.07;44.08;;;6.30;99.90;;;;;;4967561;28;20089;-61
2022/12/23 03:30:04;;;;;;;124.65;43.53;;;6.60;99.90;;;;;;4968194;28;20099;-61
2022/12/23 03:32:46;;;;;;;120.40;41.55;;;6.20;99.90;;;;;;4968573;28;20046;-62
2022/12/23 03:35:16;;;;;;;126.55;43.80;;;6.20;99.90;;;;;;4968221;28;20050;-62
2022/12/23 03:37:45;;;;;;;123.32;44.30;;;6.30;99.90;;;;;;4967450;28;20054;-62
2022/12/23 03:40:40;;;;;;;141.52;44.30;;;6.50;99.90;;;;;;4967723;28;20046;-62
2022/12/23 03:43:29;;;;;;;130.88;44.15;;;6.60;99.90;;;;;;4967578;28;20043;-61
2022/12/23 03:46:02;;;;;;;134.10;45.08;;;6.20;99.90;;;;;;4967973;28;20123;-62
2022/12/23 03:48:56;;;;;;;141.05;46.67;;;6.20;99.90;;;;;;4966867;28;20122;-62
2022/12/23 03:51:28;;;;;;;144.17;44.70;;;6.60;99.90;;;;;;4966767;28;20086;-61
2022/12/23 03:53:59;;;;;;;142.23;44.17;;;6.40;99.90;;;;;;4967865;28;20046;-61
2022/12/23 03:56:31;;;;;;;137.35;44.47;;;6.30;99.90;;;;;;4968308;28;20058;-61
2022/12/23 03:59:00;;;;;;;128.88;42.60;;;6.60;99.90;;;;;;4967890;28;20051;-62
2022/12/23 04:01:44;;;;;;;130.93;43.28;;;6.50;99.90;;;;;;4968211;28;20374;-61
2022/12/23 04:04:18;;;;;;;145.30;42.67;;;6.20;99.90;;;;;;4967593;28;20398;-62
2022/12/23 04:06:56;;;;;;;139.77;43.80;;;6.60;99.90;;;;;;4966397;28;20413;-61
2022/12/23 04:09:23;;;;;;;134.20;44.22;;;6.30;99.90;;;;;;4967278;28;20144;-62
2022/12/23 04:11:49;;;;;;;133.82;44.38;;;6.40;99.90;;;;;;4967662;28;20050;-61
2022/12/23 04:14:19;;;;;;;143.85;44.63;;;6.20;99.90;;;;;;4967934;28;20058;-61
2022/12/23 04:16:47;;;;;;;136.55;42.83;;;6.60;99.90;;;;;;4968311;28;20050;-61
2022/12/23 04:19:12;;;;;;;125.47;41.15;;;6.50;99.90;;;;;;4967654;28;20047;-62
2022/12/23 04:21:38;;;;;;;139.45;42.78;;;6.30;99.90;;;;;;4975086;28;20097;-61
2022/12/23 04:24:04;;;;;;;137.60;42.10;;;6.30;99.90;;;;;;4970721;28;20085;-62
2022/12/23 04:26:30;;;;;;;138.48;42.45;;;6.20;99.90;;;;;;4968218;28;20042;-61
2022/12/23 04:28:55;;;;;;;130.45;41.17;;;6.20;99.90;;;;;;4968061;28;20081;-62
2022/12/23 04:31:21;;;;;;;131.95;39.97;;;6.30;99.90;;;;;;4968218;28;20533;-62
2022/12/23 04:33:46;;;;;;;137.15;41.65;;;6.20;99.90;;;;;;4967924;28;20537;-62
2022/12/23 04:36:12;;;;;;;121.45;40.72;;;6.40;99.90;;;;;;4966587;28;20066;-61
2022/12/23 04:38:38;;;;;;;128.43;40.00;;;6.20;99.90;;;;;;4967571;28;20525;-62
2022/12/23 04:41:03;;;;;;;127.18;39.83;;;6.20;99.90;;;;;;4966345;28;20047;-61
2022/12/23 04:43:29;;;;;;;124.63;39.45;;;6.50;99.90;;;;;;4967987;28;20078;-61
2022/12/23 04:45:55;;;;;;;120.70;40.00;;;6.30;99.90;;;;;;4967351;28;20050;-61
2022/12/23 04:48:20;;;;;;;123.90;39.65;;;6.30;99.90;;;;;;4967902;28;20502;-62
2022/12/23 04:50:46;;;;;;;124.18;39.83;;;6.10;99.90;;;;;;4967014;28;20376;-62
2022/12/23 04:53:11;;;;;;;117.15;39.90;;;6.50;99.90;;;;;;4967194;28;20466;-62
2022/12/23 04:55:37;;;;;;;124.20;41.08;;;6.50;99.90;;;;;;4969057;28;20050;-61
2022/12/23 04:58:03;;;;;;;116.63;38.08;;;6.60;99.90;;;;;;4971307;28;20039;-63
2022/12/23 05:00:28;;;;;;;117.80;39.70;;;6.20;99.90;;;;;;4971578;28;20152;-61
2022/12/23 05:02:54;;;;;;;136.32;40.35;;;6.20;99.90;;;;;;4971412;28;20043;-61
2022/12/23 05:05:20;;;;;;;117.55;37.80;;;6.20;99.90;;;;;;4970328;28;20078;-61
2022/12/23 05:07:49;;;;;;;116.28;37.50;;;6.20;99.90;;;;;;4970897;28;20125;-62
2022/12/23 05:10:15;;;;;;;114.70;38.22;;;6.40;99.90;;;;;;4970405;28;20458;-61
2022/12/23 05:12:40;;;;;;;138.88;39.13;;;6.30;99.90;;;;;;4970682;28;20050;-61
2022/12/23 05:15:07;;;;;;;116.13;37.58;;;6.60;99.90;;;;;;4969972;28;20053;-61
2022/12/23 05:17:33;;;;;;;104.88;37.10;;;6.00;99.90;;;;;;4971064;28;20039;-61
2022/12/23 05:19:59;;;;;;;114.10;37.33;;;6.30;99.90;;;;;;4970794;28;20053;-61
2022/12/23 05:22:24;;;;;;;107.50;37.03;;;6.50;99.90;;;;;;4980884;28;20039;-61
2022/12/23 05:24:50;;;;;;;108.00;35.97;;;6.10;99.90;;;;;;4971206;28;20054;-62
2022/12/23 05:27:15;;;;;;;103.70;35.13;;;6.40;99.90;;;;;;4970455;28;20039;-61
2022/12/23 05:29:41;;;;;;;112.65;36.15;;;6.10;99.90;;;;;;4970676;28;20042;-63
2022/12/23 05:32:07;;;;;;;105.80;33.92;;;6.40;99.90;;;;;;4970693;28;20047;-61
2022/12/23 05:34:32;;;;;;;105.00;34.10;;;6.30;99.90;;;;;;4970606;28;20049;-62
2022/12/23 05:36:58;;;;;;;105.93;35.42;;;6.30;99.90;;;;;;4969875;28;20039;-61
2022/12/23 05:39:24;;;;;;;101.65;33.90;;;6.40;99.90;;;;;;4969286;28;20078;-62
2022/12/23 05:41:49;;;;;;;106.10;33.83;;;6.40;99.90;;;;;;4970009;28;20039;-62
2022/12/23 05:44:15;;;;;;;96.82;33.65;;;6.20;99.90;;;;;;4953345;28;20074;-62
2022/12/23 05:46:40;;;;;;;113.00;34.30;;;6.00;99.90;;;;;;4970154;28;20039;-62
2022/12/23 05:49:06;;;;;;;104.78;33.70;;;6.30;99.90;;;;;;4968851;28;20493;-62
2022/12/23 05:51:32;;;;;;;107.63;33.13;;;5.90;99.90;;;;;;4968064;28;20623;-61
2022/12/23 05:53:57;;;;;;;106.53;33.15;;;6.10;99.90;;;;;;4970455;28;20524;-61
2022/12/23 05:56:23;;;;;;;91.93;31.02;;;6.30;99.90;;;;;;4970464;28;20494;-61
2022/12/23 05:58:48;;;;;;;99.00;33.50;;;5.90;99.90;;;;;;4968527;28;20189;-62
2022/12/23 06:01:14;;;;;;;105.70;32.78;;;6.30;99.90;;;;;;4970280;28;20047;-61
2022/12/23 06:03:40;;;;;;;85.20;29.92;;;6.20;99.90;;;;;;4984354;28;20042;-61
2022/12/23 06:06:05;;;;;;;91.55;30.15;;;6.20;99.90;;;;;;4988655;28;20042;-61
2022/12/23 06:08:31;;;;;;;95.70;30.30;;;6.30;99.90;;;;;;4989663;28;20038;-61
2022/12/23 06:10:58;;;;;;;95.10;29.90;;;6.20;99.90;;;;;;4989270;28;20137;-61
2022/12/23 06:13:24;;;;;;;98.00;31.70;;;6.10;99.90;;;;;;4989620;28;20444;-61
2022/12/23 06:15:50;;;;;;;107.63;33.25;;;5.90;99.90;;;;;;4989106;28;20050;-61
2022/12/23 06:18:16;;;;;;;108.28;32.88;;;6.20;99.90;;;;;;4988999;28;20045;-61
2022/12/23 06:20:45;;;;;;;102.82;32.95;;;5.80;99.90;;;;;;4984868;28;20038;-62
2022/12/23 06:23:11;;;;;;;119.28;35.92;;;5.80;99.90;;;;;;4976502;28;20170;-62
2022/12/23 06:25:37;;;;;;;114.75;34.03;;;6.10;99.90;;;;;;4968789;28;20195;-62
2022/12/23 06:28:03;;;;;;;93.15;30.42;;;6.10;99.90;;;;;;4969972;28;20042;-61
2022/12/23 06:30:28;;;;;;;105.45;33.13;;;6.00;99.90;;;;;;4968561;28;20459;-61
2022/12/23 06:32:54;;;;;;;103.82;33.35;;;6.20;99.90;;;;;;4969309;28;20062;-62
2022/12/23 06:35:20;;;;;;;106.18;33.42;;;6.20;99.90;;;;;;4968645;28;20050;-61
2022/12/23 06:37:45;;;;;;;109.65;34.45;;;6.20;99.90;;;;;;4969660;28;20035;-61
2022/12/23 06:40:11;;;;;;;94.78;33.85;;;6.10;99.90;;;;;;4967689;28;20061;-62
2022/12/23 06:42:37;;;;;;;101.80;32.22;;;6.10;99.90;;;;;;4969831;28;20096;-61
2022/12/23 06:45:03;;;;;;;117.70;35.08;;;5.90;99.90;;;;;;4969678;28;20133;-61
2022/12/23 06:47:29;;;;;;;119.95;33.38;;;5.90;99.90;;;;;;4969347;28;20043;-61
2022/12/23 06:49:54;;;;;;;135.25;35.20;;;5.60;99.90;;;;;;4968669;28;20058;-61
2022/12/23 06:52:21;;;;;;;127.18;32.90;;;5.90;99.90;;;;;;4968353;28;20047;-61
2022/12/23 06:54:47;;;;;;;322.83;38.55;;;5.70;99.90;;;;;;4969227;28;20078;-61
2022/12/23 06:57:13;;;;;;;339.95;39.85;;;5.60;99.90;;;;;;4968632;28;20513;-61
2022/12/23 06:59:39;;;;;;;471.60;43.88;;;5.60;99.90;;;;;;4968248;28;20130;-61
2022/12/23 07:02:05;;;;;;;492.45;44.25;;;5.50;99.90;;;;;;4969135;28;20117;-61
2022/12/23 07:04:30;;;;;;;544.10;46.17;;;5.50;99.90;;;;;;4967494;28;20097;-61
2022/12/23 07:06:57;;;;;;;368.15;39.28;;;5.70;99.90;;;;;;4968061;28;20489;-61
2022/12/23 07:09:23;;;;;;;442.85;41.38;;;5.40;99.90;;;;;;4968676;28;20422;-61
2022/12/23 07:11:49;;;;;;;399.42;39.20;;;5.60;99.90;;;;;;4969058;28;20053;-61
2022/12/23 07:14:14;;;;;;;201.60;33.58;;;5.80;99.90;;;;;;4968280;28;20045;-62
2022/12/23 07:16:40;;;;;;;311.45;39.90;;;5.70;99.90;;;;;;4972952;28;20122;-61
2022/12/23 07:19:05;;;;;;;204.20;34.63;;;5.50;99.90;;;;;;4987637;28;20118;-61
2022/12/23 07:21:31;;;;;;;128.35;31.90;;;5.80;99.90;;;;;;4980292;28;20057;-61
2022/12/23 07:23:57;;;;;;;137.90;31.27;;;5.70;99.90;;;;;;4972886;28;20043;-61
2022/12/23 07:26:22;;;;;;;253.23;37.38;;;5.60;99.90;;;;;;4968788;28;20470;-61
2022/12/23 07:28:48;;;;;;;128.38;32.00;;;5.70;99.90;;;;;;4968751;28;20055;-61
2022/12/23 07:31:15;;;;;;;193.00;33.45;;;5.50;99.90;;;;;;4968632;28;20046;-62
2022/12/23 07:33:41;;;;;;;269.42;35.55;;;5.90;99.90;;;;;;4968660;28;20038;-62
2022/12/23 07:36:07;;;;;;;221.02;34.38;;;5.50;99.90;;;;;;4967825;28;20572;-61
2022/12/23 07:38:32;;;;;;;158.35;35.20;;;5.50;99.90;;;;;;4968195;28;20047;-61
2022/12/23 07:40:58;;;;;;;114.72;33.30;;;5.90;99.90;;;;;;4968153;28;20094;-61
2022/12/23 07:43:23;;;;;;;113.13;31.85;;;5.80;99.90;;;;;;4968941;28;20097;-61
2022/12/23 07:45:49;;;;;;;106.30;32.38;;;5.50;99.90;;;;;;4968083;28;20108;-61
2022/12/23 07:48:15;;;;;;;121.78;33.95;;;5.50;99.90;;;;;;4968036;28;20039;-62
2022/12/23 07:50:40;;;;;;;110.22;33.20;;;5.70;99.90;;;;;;4966234;28;20423;-61
2022/12/23 07:53:06;;;;;;;110.70;33.13;;;5.80;99.90;;;;;;4967539;28;20137;-62
2022/12/23 07:55:32;;;;;;;115.65;34.45;;;5.60;99.90;;;;;;4967756;28;20062;-61
2022/12/23 07:57:57;;;;;;;126.28;34.13;;;5.60;99.90;;;;;;4967702;28;20459;-61
2022/12/23 08:00:23;;;;;;;111.15;33.53;;;5.60;99.90;;;;;;4967720;28;20097;-61
2022/12/23 08:02:49;;;;;;;115.95;34.30;;;5.60;99.90;;;;;;4967838;28;20109;-62
2022/12/23 08:05:15;;;;;;;108.28;31.90;;;5.70;99.90;;;;;;4967062;28;20202;-61
2022/12/23 08:07:41;;;;;;;113.05;32.53;;;5.90;99.90;;;;;;4968207;28;20043;-61
2022/12/23 08:10:07;;;;;;;105.00;31.55;;;5.90;99.90;;;;;;4967828;28;20108;-61
2022/12/23 08:12:33;;;;;;;117.30;31.70;;;5.90;99.90;;;;;;4966254;28;20059;-62
2022/12/23 08:14:59;;;;;;;108.10;31.60;;;5.90;99.90;;;;;;4968138;28;20031;-61
2022/12/23 08:17:26;;;;;;;125.70;32.15;;;5.60;99.90;;;;;;4967942;28;20047;-61
2022/12/23 08:19:52;;;;;;;103.90;31.52;;;5.90;99.90;;;;;;4968623;28;20046;-61
2022/12/23 08:22:17;;;;;;;124.10;34.28;;;5.60;99.90;;;;;;4979089;28;20561;-61
2022/12/23 08:24:43;;;;;;;111.22;32.85;;;5.60;99.90;;;;;;4979880;28;20512;-61
2022/12/23 08:27:09;;;;;;;115.00;32.15;;;5.70;99.90;;;;;;4967743;28;20035;-62
2022/12/23 08:29:35;;;;;;;107.25;31.55;;;6.00;99.90;;;;;;4967998;28;20058;-61
2022/12/23 08:32:01;;;;;;;123.63;34.28;;;5.90;99.90;;;;;;4971543;28;20054;-61
2022/12/23 08:34:26;;;;;;;108.18;31.60;;;5.70;99.90;;;;;;4971595;28;20507;-61
2022/12/23 08:36:52;;;;;;;112.80;32.45;;;5.90;99.90;;;;;;4970166;28;20490;-61
2022/12/23 08:39:18;;;;;;;101.18;31.48;;;5.70;99.90;;;;;;4971531;28;20552;-62
2022/12/23 08:41:46;;;;;;;116.03;31.08;;;5.70;99.90;;;;;;4971777;28;20070;-61
2022/12/23 08:44:14;;;;;;;113.72;31.63;;;5.70;99.90;;;;;;4971740;28;20047;-61
2022/12/23 08:46:41;;;;;;;102.70;31.48;;;5.60;99.90;;;;;;4971543;28;20038;-61
2022/12/23 08:49:08;;;;;;;102.10;31.20;;;5.70;99.90;;;;;;4971727;28;20055;-61
2022/12/23 08:51:35;;;;;;;104.40;32.78;;;6.00;99.90;;;;;;4970029;28;20089;-61
2022/12/23 08:54:01;;;;;;;103.53;31.25;;;6.00;99.90;;;;;;4971729;28;20087;-61
2022/12/23 08:56:32;;;;;;;109.35;32.20;;;5.90;99.90;;;;;;4971476;28;20054;-61
2022/12/23 08:58:59;;;;;;;106.78;32.90;;;5.70;99.90;;;;;;4969792;28;20042;-62
2022/12/23 09:01:28;;;;;;;116.05;32.97;;;5.90;99.90;;;;;;4971362;28;20085;-61
2022/12/23 09:03:53;;;;;;;111.25;32.92;;;5.80;99.90;;;;;;4971188;28;20049;-61
2022/12/23 09:06:22;;;;;;;97.20;30.65;;;5.90;99.90;;;;;;4970427;28;20752;-61
2022/12/23 09:08:48;;;;;;;140.38;33.75;;;5.80;99.90;;;;;;4971000;28;20055;-62
2022/12/23 09:11:21;;;;;;;147.50;35.20;;;5.60;99.90;;;;;;4973742;28;20116;-61
2022/12/23 09:13:48;;;;;;;135.98;34.63;;;5.90;99.90;;;;;;4985683;28;20058;-61
2022/12/23 09:16:14;;;;;;;162.15;34.35;;;5.90;99.90;;;;;;4989368;28;20425;-61
2022/12/23 09:18:40;;;;;;;209.32;37.03;;;5.70;99.90;;;;;;4988330;28;20046;-61
2022/12/23 09:21:10;;;;;;;189.00;37.60;;;5.60;99.90;;;;;;4983009;28;20126;-61
2022/12/23 09:23:36;;;;;;;353.77;49.30;;;5.80;99.90;;;;;;4988592;28;20039;-61
2022/12/23 09:26:05;;;;;;;430.15;49.10;;;5.70;99.90;;;;;;4990001;28;20100;-61
2022/12/23 09:28:31;;;;;;;689.55;61.88;;;5.70;99.90;;;;;;4990086;28;20038;-62
2022/12/23 09:30:57;;;;;;;111.28;34.97;;;6.00;99.90;;;;;;4988834;28;20084;-60
2022/12/23 09:33:23;;;;;;;412.42;37.35;;;6.10;99.90;;;;;;4989388;28;20499;-61
2022/12/23 09:35:48;;;;;;;158.85;28.95;;;5.90;99.90;;;;;;4989801;28;20038;-61
2022/12/23 09:38:14;;;;;;;131.52;26.15;;;5.70;99.90;;;;;;4988602;28;20133;-61
2022/12/23 09:40:41;;;;;;;186.07;25.23;;;5.80;99.90;;;;;;4988722;28;20038;-61
2022/12/23 09:43:15;;;;;;;183.13;28.02;;;5.70;99.90;;;;;;4989500;28;20042;-61
2022/12/23 09:46:09;;;;;;;98.53;23.80;;;6.00;99.90;;;;;;4989202;28;20038;-61
2022/12/23 09:48:44;;;;;;;121.78;26.92;;;6.00;99.90;;;;;;4989962;28;20137;-61
2022/12/23 09:51:11;;;;;;;154.32;30.70;;;6.00;99.90;;;;;;4989035;28;20052;-61
2022/12/23 09:53:59;;;;;;;85.47;29.85;;;5.90;99.90;;;;;;4985071;28;20041;-61
2022/12/23 09:56:39;;;;;;;151.73;32.83;;;5.90;99.90;;;;;;4979865;28;20089;-61
2022/12/23 09:59:15;;;;;;;197.75;36.65;;;5.70;99.90;;;;;;4969673;28;20445;-61
2022/12/23 10:02:13;;;;;;;104.45;35.55;;;6.10;99.90;;;;;;4984520;28;20087;-61
2022/12/23 10:05:02;;;;;;;91.38;34.50;;;6.20;99.90;;;;;;4988330;28;20129;-61
2022/12/23 10:07:48;;;;;;;81.57;34.88;;;6.00;99.90;;;;;;4996350;28;20120;-61
2022/12/23 10:10:25;;;;;;;85.70;34.63;;;6.10;99.90;;;;;;4988493;28;20208;-61
2022/12/23 10:12:52;;;;;;;98.85;38.22;;;6.20;99.90;;;;;;4988678;28;20046;-61
2022/12/23 10:15:43;;;;;;;92.93;37.85;;;6.00;99.90;;;;;;4971919;28;20137;-61
2022/12/23 10:18:26;;;;;;;78.82;36.70;;;6.20;99.90;;;;;;4976900;28;20038;-73
2022/12/23 10:21:06;;;;;;;102.55;38.58;;;6.30;99.90;;;;;;4981638;28;20054;-62
2022/12/23 10:23:42;;;;;;;72.70;34.33;;;6.00;99.90;;;;;;4980378;28;20050;-61
2022/12/23 10:26:36;;;;;;;79.38;34.78;;;6.10;99.90;;;;;;4988199;28;20104;-61
2022/12/23 10:29:21;;;;;;;70.63;30.48;;;6.50;99.90;;;;;;4985426;28;20049;-62
2022/12/23 10:32:06;;;;;;;69.32;31.92;;;6.10;99.90;;;;;;4988598;28;20405;-61
2022/12/23 10:35:04;;;;;;;63.75;27.20;;;6.50;99.90;;;;;;4995624;28;20093;-60
2022/12/23 10:37:53;;;;;;;63.20;27.30;;;6.60;99.90;;;;;;4986338;28;20051;-61
2022/12/23 10:40:44;;;;;;;61.70;26.50;;;6.30;99.90;;;;;;4988590;28;20480;-61
2022/12/23 10:43:37;;;;;;;64.70;27.60;;;6.70;99.90;;;;;;4988663;28;20053;-61
2022/12/23 10:46:42;;;;;;;60.65;27.40;;;6.60;99.90;;;;;;4987635;28;20097;-61
2022/12/23 10:49:35;;;;;;;66.73;28.93;;;6.80;99.90;;;;;;4988140;28;20113;-61
2022/12/23 10:52:10;;;;;;;62.17;27.95;;;6.80;99.90;;;;;;4987722;28;20525;-61
2022/12/23 10:54:37;;;;;;;65.45;28.80;;;6.50;99.90;;;;;;4986951;28;20136;-61
2022/12/23 10:57:05;;;;;;;58.55;26.98;;;6.50;99.90;;;;;;4987305;28;20402;-61
2022/12/23 10:59:33;;;;;;;60.28;28.88;;;6.50;99.90;;;;;;4987623;28;20050;-60
2022/12/23 11:02:24;;;;;;;61.78;27.98;;;6.90;99.90;;;;;;4987668;28;20050;-61
2022/12/23 11:04:50;;;;;;;59.42;27.58;;;6.60;99.90;;;;;;4988764;28;20149;-63
2022/12/23 11:07:23;;;;;;;62.90;27.33;;;6.70;99.90;;;;;;4988077;28;20130;-60
2022/12/23 11:09:51;;;;;;;58.92;27.15;;;6.90;99.90;;;;;;4987923;28;20057;-62
2022/12/23 11:12:22;;;;;;;59.13;27.92;;;6.50;99.90;;;;;;4987448;28;20046;-64
2022/12/23 11:14:58;;;;;;;63.65;28.75;;;6.60;99.90;;;;;;5083950;28;20977;-63
2022/12/23 11:17:27;;;;;;;65.05;30.02;;;6.60;99.90;;;;;;5084394;28;20052;-63
2022/12/23 11:20:04;;;;;;;66.45;30.33;;;6.90;99.90;;;;;;5082995;28;20044;-63
2022/12/23 11:22:30;;;;;;;69.03;29.85;;;6.80;99.90;;;;;;5073480;28;20377;-63
2022/12/23 11:25:33;;;;;;;72.35;31.63;;;7.10;99.90;;;;;;5063452;28;20095;-64
2022/12/23 11:28:20;;;;;;;63.28;31.13;;;7.00;99.90;;;;;;5062850;28;20052;-61
2022/12/23 11:30:53;;;;;;;67.68;32.90;;;7.00;99.90;;;;;;5063368;28;20388;-63
2022/12/23 11:33:25;;;;;;;65.63;32.78;;;7.30;99.90;;;;;;5063933;28;20408;-63
2022/12/23 11:36:03;;;;;;;77.25;35.53;;;7.20;99.90;;;;;;5062883;28;20059;-63
2022/12/23 11:38:30;;;;;;;81.03;35.50;;;7.20;99.90;;;;;;5063690;28;20045;-60
2022/12/23 11:40:56;;;;;;;73.57;35.38;;;6.80;99.90;;;;;;5046074;28;20048;-63
2022/12/23 11:43:24;;;;;;;69.88;34.65;;;6.90;99.90;;;;;;5063556;28;20041;-61
2022/12/23 11:46:30;;;;;;;72.65;34.58;;;6.80;99.90;;;;;;5063707;28;20047;-61
2022/12/23 11:49:16;;;;;;;79.25;35.28;;;7.20;99.90;;;;;;5079790;28;20067;-61
2022/12/23 11:51:43;;;;;;;131.13;77.13;;;7.00;99.90;;;;;;5066463;28;20181;-63
2022/12/23 11:54:16;;;;;;;75.30;37.17;;;7.00;99.90;;;;;;5083047;28;20439;-61
2022/12/23 11:56:42;;;;;;;78.28;34.03;;;7.20;99.90;;;;;;5083169;28;20040;-61
2022/12/23 11:59:25;;;;;;;73.38;35.03;;;6.80;99.90;;;;;;5082951;28;20580;-60
2022/12/23 12:01:51;;;;;;;68.00;33.55;;;7.30;99.90;;;;;;5081434;28;20104;-59
2022/12/23 12:04:21;;;;;;;73.35;33.35;;;7.30;99.90;;;;;;5082363;28;20048;-60
2022/12/23 12:06:49;;;;;;;68.35;31.85;;;6.90;99.90;;;;;;5081438;28;20060;-62
2022/12/23 12:09:15;;;;;;;70.95;33.28;;;6.90;99.90;;;;;;5082866;28;20044;-61
2022/12/23 12:11:51;;;;;;;74.05;33.63;;;7.40;99.90;;;;;;5083705;28;20088;-60
2022/12/23 12:14:48;;;;;;;75.45;32.10;;;7.30;99.90;;;;;;5082860;28;20094;-60
2022/12/23 12:17:26;;;;;;;68.22;29.48;;;7.10;99.90;;;;;;5081808;28;20048;-59
2022/12/23 12:20:16;;;;;;;65.13;29.20;;;7.20;99.90;;;;;;5082239;28;20085;-59
2022/12/23 12:22:58;;;;;;;59.90;28.92;;;6.90;99.90;;;;;;5072463;28;20506;-62
2022/12/23 12:25:47;;;;;;;57.60;28.55;;;7.20;99.90;;;;;;5074739;28;20488;-59
2022/12/23 12:28:19;;;;;;;60.47;26.67;;;7.40;99.90;;;;;;5069308;28;20036;-60
2022/12/23 12:30:56;;;;;;;50.40;24.58;;;6.90;99.90;;;;;;5067748;28;20132;-61
2022/12/23 12:33:34;;;;;;;51.55;22.98;;;7.00;99.90;;;;;;5068786;28;20114;-60
2022/12/23 12:36:24;;;;;;;54.13;26.58;;;7.20;99.90;;;;;;5068082;28;20391;-59
2022/12/23 12:38:53;;;;;;;49.97;23.77;;;7.00;99.90;;;;;;5068556;28;20638;-60
2022/12/23 12:41:36;;;;;;;47.60;24.02;;;6.90;99.90;;;;;;5068735;28;20349;-60
2022/12/23 12:44:36;;;;;;;50.90;24.08;;;6.90;99.90;;;;;;5067559;28;20131;-59
2022/12/23 12:47:26;;;;;;;44.78;22.05;;;6.90;99.90;;;;;;5067281;28;20411;-59
2022/12/23 12:49:58;;;;;;;50.88;21.77;;;7.20;99.90;;;;;;5068086;28;20416;-59
2022/12/23 12:52:26;;;;;;;45.75;22.02;;;7.10;99.90;;;;;;5068594;28;20090;-60
2022/12/23 12:55:01;;;;;;;44.45;21.45;;;7.30;99.90;;;;;;5068694;28;20076;-61
2022/12/23 12:57:28;;;;;;;46.17;22.23;;;7.30;99.90;;;;;;5067861;28;20044;-59
2022/12/23 12:59:56;;;;;;;44.60;21.05;;;7.30;99.90;;;;;;5068659;28;20049;-59
2022/12/23 13:02:40;;;;;;;47.20;21.17;;;7.30;99.90;;;;;;5068703;28;20044;-59
2022/12/23 13:05:42;;;;;;;49.45;21.25;;;7.00;99.90;;;;;;5067761;28;20052;-59
2022/12/23 13:08:30;;;;;;;48.63;21.80;;;7.10;99.90;;;;;;5068480;28;20097;-60
2022/12/23 13:11:12;;;;;;;57.92;23.48;;;7.40;99.90;;;;;;5067706;28;20127;-59
2022/12/23 13:13:38;;;;;;;54.90;23.25;;;7.20;99.90;;;;;;5068219;28;20105;-59
2022/12/23 13:16:12;;;;;;;52.60;24.20;;;7.00;99.90;;;;;;5068335;28;20398;-63
2022/12/23 13:19:01;;;;;;;28.75;15.25;;;7.20;99.90;;;;;;5068042;28;20040;-63
2022/12/23 13:21:41;;;;;;;68.18;26.85;;;7.50;99.90;;;;;;5052833;28;20361;-65